createdAt,value
2022-09-28T00:00:33.940Z,940.7
2022-09-28T00:01:35.931Z,940.6
2022-09-28T00:02:43.450Z,940.6
2022-09-28T00:03:45.550Z,940.6
2022-09-28T00:04:47.291Z,940.6
2022-09-28T00:05:49.027Z,940.5
2022-09-28T00:06:50.732Z,940.5
2022-09-28T00:07:52.421Z,940.5
2022-09-28T00:08:54.104Z,940.5
2022-09-28T00:09:55.828Z,940.5
2022-09-28T00:10:57.559Z,940.5
2022-09-28T00:11:59.100Z,940.5
2022-09-28T00:13:00.952Z,940.4
2022-09-28T00:14:02.697Z,940.4
2022-09-28T00:15:04.245Z,940.4
2022-09-28T00:16:06.281Z,940.4
2022-09-28T00:17:08.011Z,940.3
2022-09-28T00:18:09.601Z,940.3
2022-09-28T00:19:11.249Z,940.4
2022-09-28T00:20:12.891Z,940.4
2022-09-28T00:21:14.658Z,940.4
2022-09-28T00:22:16.256Z,940.4
2022-09-28T00:23:18.022Z,940.4
2022-09-28T00:24:27.955Z,940.4
2022-09-28T00:25:29.725Z,940.4
2022-09-28T00:26:31.310Z,940.4
2022-09-28T00:27:32.938Z,940.4
2022-09-28T00:28:34.544Z,940.4
2022-09-28T00:29:36.183Z,940.4
2022-09-28T00:30:37.938Z,940.4
2022-09-28T00:31:39.795Z,940.4
2022-09-28T00:32:41.630Z,940.4
2022-09-28T00:33:43.253Z,940.4
2022-09-28T00:34:44.775Z,940.5
2022-09-28T00:35:46.567Z,940.5
2022-09-28T00:36:48.408Z,940.5
2022-09-28T00:37:50.088Z,940.4
2022-09-28T00:38:51.911Z,940.4
2022-09-28T00:39:53.594Z,940.4
2022-09-28T00:40:55.598Z,940.4
2022-09-28T00:41:57.572Z,940.4
2022-09-28T00:42:59.223Z,940.3
2022-09-28T00:44:01.157Z,940.3
2022-09-28T00:45:02.724Z,940.4
2022-09-28T00:46:04.813Z,940.4
2022-09-28T00:47:06.639Z,940.4
2022-09-28T00:48:08.265Z,940.4
2022-09-28T00:49:10.084Z,940.4
2022-09-28T00:50:11.842Z,940.4
2022-09-28T00:51:13.468Z,940.3
2022-09-28T00:52:15.371Z,940.3
2022-09-28T00:53:16.908Z,940.3
2022-09-28T00:54:18.527Z,940.4
2022-09-28T00:55:20.169Z,940.3
2022-09-28T00:56:21.811Z,940.4
2022-09-28T00:57:23.572Z,940.4
2022-09-28T00:58:25.195Z,940.4
2022-09-28T00:59:26.767Z,940.3
2022-09-28T01:00:28.674Z,940.3
2022-09-28T01:01:30.570Z,940.3
2022-09-28T01:02:32.733Z,940.3
2022-09-28T01:03:34.688Z,940.3
2022-09-28T01:04:36.414Z,940.3
2022-09-28T01:05:38.060Z,940.3
2022-09-28T01:06:39.611Z,940.4
2022-09-28T01:07:41.188Z,940.4
2022-09-28T01:08:42.995Z,940.4
2022-09-28T01:09:44.644Z,940.4
2022-09-28T01:10:46.349Z,940.5
2022-09-28T01:11:47.997Z,940.4
2022-09-28T01:12:49.638Z,940.5
2022-09-28T01:13:51.257Z,940.5
2022-09-28T01:14:52.837Z,940.5
2022-09-28T01:15:54.751Z,940.5
2022-09-28T01:16:56.650Z,940.5
2022-09-28T01:17:58.203Z,940.5
2022-09-28T01:18:59.979Z,940.6
2022-09-28T01:20:01.716Z,940.6
2022-09-28T01:21:06.068Z,940.5
2022-09-28T01:22:07.653Z,940.5
2022-09-28T01:23:11.968Z,940.5
2022-09-28T01:24:13.555Z,940.5
2022-09-28T01:25:15.171Z,940.5
2022-09-28T01:26:16.895Z,940.5
2022-09-28T01:27:18.570Z,940.5
2022-09-28T01:28:20.206Z,940.5
2022-09-28T01:29:21.852Z,940.5
2022-09-28T01:30:23.501Z,940.4
2022-09-28T01:31:25.299Z,940.4
2022-09-28T01:32:27.087Z,940.5
2022-09-28T01:33:28.742Z,940.5
2022-09-28T01:34:30.272Z,940.6
2022-09-28T01:35:31.939Z,940.6
2022-09-28T01:36:33.474Z,940.5
2022-09-28T01:37:35.121Z,940.5
2022-09-28T01:38:36.769Z,940.5
2022-09-28T01:39:38.416Z,940.5
2022-09-28T01:40:40.313Z,940.5
2022-09-28T01:41:42.289Z,940.6
2022-09-28T01:42:44.063Z,940.6
2022-09-28T01:43:45.712Z,940.7
2022-09-28T01:44:47.254Z,940.8
2022-09-28T01:45:49.075Z,940.7
2022-09-28T01:46:50.833Z,940.7
2022-09-28T01:47:52.371Z,940.6
2022-09-28T01:48:54.040Z,940.6
2022-09-28T01:49:55.580Z,940.5
2022-09-28T01:50:57.414Z,940.5
2022-09-28T01:51:58.944Z,940.6
2022-09-28T01:53:00.589Z,940.6
2022-09-28T01:54:02.159Z,940.6
2022-09-28T01:55:03.756Z,940.7
2022-09-28T01:56:05.534Z,940.7
2022-09-28T01:57:07.325Z,940.6
2022-09-28T01:58:08.922Z,940.6
2022-09-28T01:59:10.693Z,940.6
2022-09-28T02:00:12.449Z,940.6
2022-09-28T02:01:14.506Z,940.6
2022-09-28T02:02:16.709Z,940.6
2022-09-28T02:03:18.570Z,940.6
2022-09-28T02:04:20.220Z,940.6
2022-09-28T02:05:21.798Z,940.7
2022-09-28T02:06:23.438Z,940.7
2022-09-28T02:07:25.085Z,940.8
2022-09-28T02:08:26.621Z,940.8
2022-09-28T02:09:34.196Z,940.7
2022-09-28T02:10:35.741Z,940.7
2022-09-28T02:11:37.388Z,940.7
2022-09-28T02:12:39.172Z,940.7
2022-09-28T02:13:40.778Z,940.8
2022-09-28T02:14:42.536Z,940.8
2022-09-28T02:15:44.083Z,940.8
2022-09-28T02:16:45.900Z,940.8
2022-09-28T02:17:47.801Z,940.8
2022-09-28T02:18:49.428Z,940.8
2022-09-28T02:19:50.960Z,940.7
2022-09-28T02:20:52.599Z,940.7
2022-09-28T02:21:54.264Z,940.7
2022-09-28T02:22:55.996Z,940.7
2022-09-28T02:23:57.656Z,940.8
2022-09-28T02:24:59.309Z,940.9
2022-09-28T02:26:00.847Z,940.9
2022-09-28T02:27:02.474Z,940.9
2022-09-28T02:28:04.111Z,940.8
2022-09-28T02:29:05.909Z,940.8
2022-09-28T02:30:07.583Z,940.8
2022-09-28T02:31:09.514Z,940.8
2022-09-28T02:32:11.379Z,940.8
2022-09-28T02:33:13.059Z,940.8
2022-09-28T02:34:14.720Z,940.8
2022-09-28T02:35:16.248Z,940.8
2022-09-28T02:36:17.807Z,940.9
2022-09-28T02:37:19.459Z,940.9
2022-09-28T02:38:20.997Z,940.8
2022-09-28T02:39:22.647Z,940.8
2022-09-28T02:40:24.605Z,940.8
2022-09-28T02:41:26.292Z,940.8
2022-09-28T02:42:28.072Z,940.7
2022-09-28T02:43:29.760Z,940.8
2022-09-28T02:44:31.349Z,940.8
2022-09-28T02:45:33.150Z,940.8
2022-09-28T02:46:34.828Z,940.7
2022-09-28T02:47:36.420Z,940.6
2022-09-28T02:49:00.412Z,940.6
2022-09-28T02:50:32.024Z,940.7
2022-09-28T02:51:33.625Z,940.7
2022-09-28T02:52:35.432Z,940.7
2022-09-28T02:53:36.966Z,940.8
2022-09-28T02:54:38.504Z,940.7
2022-09-28T02:55:40.160Z,940.8
2022-09-28T02:56:41.793Z,940.8
2022-09-28T02:57:43.535Z,940.8
2022-09-28T02:58:45.161Z,940.8
2022-09-28T02:59:46.848Z,940.8
2022-09-28T03:00:48.744Z,940.8
2022-09-28T03:01:50.754Z,940.8
2022-09-28T03:02:52.602Z,940.8
2022-09-28T03:03:54.129Z,940.8
2022-09-28T03:04:55.664Z,940.9
2022-09-28T03:05:57.199Z,940.9
2022-09-28T03:06:58.857Z,940.9
2022-09-28T03:08:00.726Z,940.9
2022-09-28T03:09:02.364Z,940.9
2022-09-28T03:10:03.929Z,940.9
2022-09-28T03:11:05.652Z,940.9
2022-09-28T03:12:07.278Z,940.9
2022-09-28T03:13:09.033Z,940.9
2022-09-28T03:14:10.909Z,940.9
2022-09-28T03:15:12.515Z,941
2022-09-28T03:16:14.504Z,941
2022-09-28T03:17:16.540Z,941
2022-09-28T03:18:18.077Z,941
2022-09-28T03:19:19.733Z,941
2022-09-28T03:20:21.395Z,941
2022-09-28T03:21:23.036Z,941
2022-09-28T03:22:24.683Z,941
2022-09-28T03:23:26.396Z,941
2022-09-28T03:24:28.169Z,941
2022-09-28T03:25:29.824Z,941
2022-09-28T03:26:31.459Z,941.1
2022-09-28T03:27:33.052Z,941.1
2022-09-28T03:28:34.677Z,941.1
2022-09-28T03:29:36.526Z,941.1
2022-09-28T03:30:38.118Z,941.1
2022-09-28T03:31:39.943Z,941.1
2022-09-28T03:32:41.930Z,941.2
2022-09-28T03:33:43.544Z,941.1
2022-09-28T03:34:45.313Z,941.1
2022-09-28T03:35:46.854Z,941.1
2022-09-28T03:36:48.411Z,941.1
2022-09-28T03:37:49.957Z,941.1
2022-09-28T03:38:51.496Z,941.1
2022-09-28T03:39:53.161Z,941.1
2022-09-28T03:40:55.167Z,941.1
2022-09-28T03:41:57.150Z,941.1
2022-09-28T03:42:59.604Z,941.1
2022-09-28T03:44:01.255Z,941.2
2022-09-28T03:45:03.064Z,941.2
2022-09-28T03:46:05.020Z,941.2
2022-09-28T03:47:06.875Z,941.2
2022-09-28T03:48:08.422Z,941.2
2022-09-28T03:49:10.446Z,941.1
2022-09-28T03:50:12.320Z,941.1
2022-09-28T03:51:13.932Z,941.2
2022-09-28T03:52:15.622Z,941.2
2022-09-28T03:53:17.266Z,941.3
2022-09-28T03:54:18.853Z,941.3
2022-09-28T03:55:20.386Z,941.3
2022-09-28T03:56:22.055Z,941.2
2022-09-28T03:57:23.686Z,941.2
2022-09-28T03:58:25.421Z,941.2
2022-09-28T03:59:27.069Z,941.2
2022-09-28T04:00:28.698Z,941.2
2022-09-28T04:01:30.686Z,941.2
2022-09-28T04:02:32.825Z,941.2
2022-09-28T04:03:34.533Z,941.2
2022-09-28T04:04:36.071Z,941.2
2022-09-28T04:05:37.671Z,941.2
2022-09-28T04:06:39.314Z,941.2
2022-09-28T04:07:40.929Z,941.2
2022-09-28T04:08:42.486Z,941.2
2022-09-28T04:09:44.120Z,941.1
2022-09-28T04:10:45.684Z,941.1
2022-09-28T04:12:04.833Z,941.1
2022-09-28T04:13:06.487Z,941.1
2022-09-28T04:14:08.191Z,941.1
2022-09-28T04:15:09.834Z,941.1
2022-09-28T04:16:12.025Z,941.1
2022-09-28T04:17:13.762Z,941.1
2022-09-28T04:18:15.530Z,941.1
2022-09-28T04:19:17.448Z,941.1
2022-09-28T04:20:19.288Z,941.1
2022-09-28T04:21:20.825Z,941.1
2022-09-28T04:22:22.379Z,941
2022-09-28T04:23:24.278Z,941
2022-09-28T04:24:25.899Z,941
2022-09-28T04:25:27.447Z,941
2022-09-28T04:26:29.134Z,941.1
2022-09-28T04:27:30.747Z,941.1
2022-09-28T04:28:32.431Z,941.1
2022-09-28T04:29:34.032Z,941
2022-09-28T04:30:35.777Z,940.9
2022-09-28T04:31:37.897Z,941
2022-09-28T04:32:39.611Z,941.1
2022-09-28T04:33:41.152Z,941.1
2022-09-28T04:34:44.825Z,941.1
2022-09-28T04:35:46.355Z,941.1
2022-09-28T04:36:47.884Z,941
2022-09-28T04:37:49.642Z,940.9
2022-09-28T04:38:53.970Z,941
2022-09-28T04:39:55.633Z,941.1
2022-09-28T04:40:57.566Z,941.1
2022-09-28T04:41:59.257Z,941.1
2022-09-28T04:43:00.819Z,941.1
2022-09-28T04:44:02.586Z,941.1
2022-09-28T04:45:04.304Z,941
2022-09-28T04:46:06.224Z,941
2022-09-28T04:47:08.062Z,941.1
2022-09-28T04:48:09.808Z,941.1
2022-09-28T04:49:11.541Z,941.2
2022-09-28T04:50:13.243Z,941.2
2022-09-28T04:51:15.029Z,941.2
2022-09-28T04:52:19.059Z,941.1
2022-09-28T04:53:20.628Z,941
2022-09-28T04:54:22.221Z,941
2022-09-28T04:55:24.083Z,941.1
2022-09-28T04:56:25.627Z,941.2
2022-09-28T04:57:27.455Z,941.2
2022-09-28T04:58:29.048Z,941.1
2022-09-28T04:59:30.868Z,941
2022-09-28T05:00:32.603Z,940.9
2022-09-28T05:01:34.591Z,940.9
2022-09-28T05:02:36.978Z,941
2022-09-28T05:03:38.825Z,941.1
2022-09-28T05:04:40.369Z,941.2
2022-09-28T05:05:41.978Z,941.1
2022-09-28T05:06:43.527Z,941
2022-09-28T05:07:45.156Z,940.9
2022-09-28T05:08:46.805Z,940.9
2022-09-28T05:09:48.518Z,940.9
2022-09-28T05:10:50.090Z,941
2022-09-28T05:11:51.749Z,941
2022-09-28T05:12:53.374Z,941.1
2022-09-28T05:13:55.024Z,941.2
2022-09-28T05:14:56.672Z,941.2
2022-09-28T05:16:05.852Z,941.2
2022-09-28T05:17:07.934Z,941.2
2022-09-28T05:18:09.633Z,941.2
2022-09-28T05:19:11.194Z,941.2
2022-09-28T05:20:12.731Z,941.2
2022-09-28T05:21:14.270Z,941.2
2022-09-28T05:22:15.868Z,941.3
2022-09-28T05:23:17.626Z,941.3
2022-09-28T05:24:19.199Z,941.3
2022-09-28T05:25:20.745Z,941.3
2022-09-28T05:26:22.299Z,941.3
2022-09-28T05:27:24.283Z,941.3
2022-09-28T05:28:25.846Z,941.3
2022-09-28T05:29:32.927Z,941.3
2022-09-28T05:30:34.744Z,941.3
2022-09-28T05:31:36.523Z,941.3
2022-09-28T05:32:38.343Z,941.2
2022-09-28T05:33:39.992Z,941.3
2022-09-28T05:34:41.630Z,941.4
2022-09-28T05:35:43.280Z,941.4
2022-09-28T05:36:44.870Z,941.4
2022-09-28T05:37:46.579Z,941.3
2022-09-28T05:38:48.229Z,941.1
2022-09-28T05:39:49.764Z,941.1
2022-09-28T05:40:51.501Z,941.2
2022-09-28T05:41:53.241Z,941.4
2022-09-28T05:42:55.070Z,941.5
2022-09-28T05:43:56.667Z,941.4
2022-09-28T05:44:58.275Z,941.3
2022-09-28T05:46:00.089Z,941.2
2022-09-28T05:47:02.053Z,941.4
2022-09-28T05:48:03.740Z,941.5
2022-09-28T05:49:05.367Z,941.4
2022-09-28T05:50:07.005Z,941.4
2022-09-28T05:51:08.646Z,941.3
2022-09-28T05:52:10.428Z,941.3
2022-09-28T05:53:12.086Z,941.4
2022-09-28T05:54:13.855Z,941.4
2022-09-28T05:55:15.746Z,941.4
2022-09-28T05:56:17.627Z,941.3
2022-09-28T05:57:19.468Z,941.3
2022-09-28T05:58:21.097Z,941.3
2022-09-28T05:59:22.855Z,941.2
2022-09-28T06:00:24.607Z,941.2
2022-09-28T06:01:26.568Z,941.3
2022-09-28T06:02:28.837Z,941.3
2022-09-28T06:03:30.681Z,941.3
2022-09-28T06:04:32.322Z,941.3
2022-09-28T06:05:34.085Z,941.3
2022-09-28T06:06:35.615Z,941.4
2022-09-28T06:07:37.273Z,941.4
2022-09-28T06:08:38.820Z,941.5
2022-09-28T06:09:40.461Z,941.4
2022-09-28T06:10:42.118Z,941.4
2022-09-28T06:11:43.717Z,941.4
2022-09-28T06:12:45.336Z,941.5
2022-09-28T06:13:46.893Z,941.4
2022-09-28T06:14:48.613Z,941.4
2022-09-28T06:15:50.226Z,941.3
2022-09-28T06:16:52.198Z,941.3
2022-09-28T06:17:54.033Z,941.3
2022-09-28T06:18:55.653Z,941.4
2022-09-28T06:19:57.287Z,941.4
2022-09-28T06:20:58.844Z,941.4
2022-09-28T06:22:00.509Z,941.4
2022-09-28T06:23:02.152Z,941.4
2022-09-28T06:24:03.677Z,941.5
2022-09-28T06:25:05.324Z,941.5
2022-09-28T06:26:07.070Z,941.5
2022-09-28T06:27:08.739Z,941.5
2022-09-28T06:28:10.274Z,941.5
2022-09-28T06:29:19.995Z,941.5
2022-09-28T06:30:21.616Z,941.5
2022-09-28T06:31:24.048Z,941.5
2022-09-28T06:32:25.862Z,941.5
2022-09-28T06:33:27.508Z,941.5
2022-09-28T06:34:29.137Z,941.5
2022-09-28T06:35:30.928Z,941.5
2022-09-28T06:36:32.766Z,941.5
2022-09-28T06:37:34.442Z,941.5
2022-09-28T06:38:36.133Z,941.5
2022-09-28T06:39:37.801Z,941.5
2022-09-28T06:40:39.694Z,941.6
2022-09-28T06:41:41.602Z,941.7
2022-09-28T06:42:43.348Z,941.7
2022-09-28T06:43:44.973Z,941.6
2022-09-28T06:44:46.502Z,941.6
2022-09-28T06:45:48.375Z,941.7
2022-09-28T06:46:50.137Z,941.6
2022-09-28T06:47:51.694Z,941.6
2022-09-28T06:48:53.237Z,941.6
2022-09-28T06:49:54.841Z,941.6
2022-09-28T06:50:56.476Z,941.6
2022-09-28T06:51:58.254Z,941.5
2022-09-28T06:52:59.864Z,941.5
2022-09-28T06:54:01.695Z,941.5
2022-09-28T06:55:03.285Z,941.6
2022-09-28T06:56:04.857Z,941.7
2022-09-28T06:57:06.453Z,941.8
2022-09-28T06:58:08.111Z,941.7
2022-09-28T06:59:09.668Z,941.7
2022-09-28T07:00:11.273Z,941.6
2022-09-28T07:01:13.194Z,941.7
2022-09-28T07:02:15.273Z,941.7
2022-09-28T07:03:17.221Z,941.7
2022-09-28T07:04:19.449Z,941.7
2022-09-28T07:05:21.158Z,941.7
2022-09-28T07:06:22.818Z,941.7
2022-09-28T07:07:24.572Z,941.7
2022-09-28T07:08:26.309Z,941.7
2022-09-28T07:09:42.795Z,941.6
2022-09-28T07:10:52.849Z,941.7
2022-09-28T07:11:54.611Z,941.6
2022-09-28T07:12:56.243Z,941.6
2022-09-28T07:13:57.897Z,941.5
2022-09-28T07:14:59.462Z,941.5
2022-09-28T07:16:01.090Z,941.6
2022-09-28T07:17:15.337Z,941.7
2022-09-28T07:18:17.617Z,941.8
2022-09-28T07:19:19.639Z,941.7
2022-09-28T07:20:21.373Z,941.6
2022-09-28T07:21:31.075Z,941.6
2022-09-28T07:22:44.168Z,941.7
2022-09-28T07:23:54.655Z,941.7
2022-09-28T07:24:56.289Z,941.7
2022-09-28T07:25:57.988Z,941.7
2022-09-28T07:26:59.696Z,941.7
2022-09-28T07:28:01.346Z,941.7
2022-09-28T07:29:02.896Z,941.7
2022-09-28T07:30:04.503Z,941.7
2022-09-28T07:31:06.554Z,941.7
2022-09-28T07:32:08.460Z,941.6
2022-09-28T07:33:10.100Z,941.6
2022-09-28T07:34:11.941Z,941.6
2022-09-28T07:35:13.814Z,941.6
2022-09-28T07:36:15.475Z,941.7
2022-09-28T07:37:17.234Z,941.7
2022-09-28T07:38:19.157Z,941.7
2022-09-28T07:39:20.755Z,941.7
2022-09-28T07:40:22.757Z,941.7
2022-09-28T07:41:24.486Z,941.7
2022-09-28T07:42:26.142Z,941.7
2022-09-28T07:43:27.799Z,941.7
2022-09-28T07:44:29.528Z,941.7
2022-09-28T07:45:31.483Z,941.8
2022-09-28T07:46:33.354Z,941.8
2022-09-28T07:47:35.722Z,941.8
2022-09-28T07:48:37.424Z,941.8
2022-09-28T07:49:39.197Z,941.7
2022-09-28T07:50:41.037Z,941.8
2022-09-28T07:51:42.818Z,941.7
2022-09-28T07:52:44.649Z,941.8
2022-09-28T07:53:46.401Z,941.8
2022-09-28T07:54:48.096Z,941.8
2022-09-28T07:55:49.916Z,941.9
2022-09-28T07:56:51.679Z,941.9
2022-09-28T07:57:53.480Z,941.9
2022-09-28T07:58:55.143Z,941.9
2022-09-28T07:59:56.737Z,941.8
2022-09-28T08:00:58.752Z,941.9
2022-09-28T08:02:00.796Z,941.9
2022-09-28T08:03:02.987Z,941.9
2022-09-28T08:04:04.899Z,941.9
2022-09-28T08:05:06.479Z,941.9
2022-09-28T08:06:08.208Z,941.8
2022-09-28T08:07:09.916Z,941.8
2022-09-28T08:08:11.891Z,941.8
2022-09-28T08:09:14.047Z,941.8
2022-09-28T08:10:16.384Z,941.9
2022-09-28T08:11:17.951Z,941.9
2022-09-28T08:12:19.808Z,941.9
2022-09-28T08:13:27.545Z,941.9
2022-09-28T08:14:29.374Z,941.9
2022-09-28T08:15:33.460Z,941.9
2022-09-28T08:16:35.543Z,941.9
2022-09-28T08:17:37.403Z,941.9
2022-09-28T08:18:39.071Z,941.9
2022-09-28T08:19:40.744Z,941.8
2022-09-28T08:20:42.396Z,941.9
2022-09-28T08:21:44.040Z,941.9
2022-09-28T08:22:45.610Z,941.9
2022-09-28T08:23:47.943Z,941.9
2022-09-28T08:24:49.790Z,941.8
2022-09-28T08:25:51.354Z,941.8
2022-09-28T08:26:53.045Z,941.8
2022-09-28T08:27:54.803Z,941.8
2022-09-28T08:28:56.417Z,941.8
2022-09-28T08:29:58.212Z,941.9
2022-09-28T08:31:00.146Z,941.9
2022-09-28T08:32:02.507Z,941.9
2022-09-28T08:33:04.150Z,941.8
2022-09-28T08:34:05.793Z,941.9
2022-09-28T08:35:07.452Z,941.9
2022-09-28T08:36:09.005Z,941.9
2022-09-28T08:37:10.648Z,941.8
2022-09-28T08:38:12.246Z,941.8
2022-09-28T08:39:14.044Z,941.8
2022-09-28T08:40:16.214Z,941.9
2022-09-28T08:41:17.899Z,941.8
2022-09-28T08:42:19.547Z,941.8
2022-09-28T08:43:21.243Z,941.8
2022-09-28T08:44:23.066Z,941.8
2022-09-28T08:45:24.813Z,941.8
2022-09-28T08:46:27.722Z,941.8
2022-09-28T08:47:29.491Z,941.8
2022-09-28T08:48:31.047Z,941.8
2022-09-28T08:49:33.794Z,941.8
2022-09-28T08:50:35.961Z,941.8
2022-09-28T08:51:37.640Z,941.8
2022-09-28T08:52:41.956Z,941.7
2022-09-28T08:53:43.517Z,941.7
2022-09-28T08:54:45.377Z,941.7
2022-09-28T08:55:47.098Z,941.7
2022-09-28T08:56:48.769Z,941.7
2022-09-28T08:57:50.311Z,941.6
2022-09-28T08:58:52.052Z,941.6
2022-09-28T08:59:53.798Z,941.6
2022-09-28T09:00:55.659Z,941.6
2022-09-28T09:01:58.798Z,941.6
2022-09-28T09:03:00.868Z,941.6
2022-09-28T09:04:02.531Z,941.6
2022-09-28T09:05:04.183Z,941.6
2022-09-28T09:06:05.820Z,941.6
2022-09-28T09:07:07.463Z,941.6
2022-09-28T09:08:09.218Z,941.6
2022-09-28T09:09:10.843Z,941.5
2022-09-28T09:10:12.621Z,941.6
2022-09-28T09:11:14.334Z,941.6
2022-09-28T09:12:16.356Z,941.5
2022-09-28T09:13:18.052Z,941.5
2022-09-28T09:14:19.741Z,941.5
2022-09-28T09:15:21.347Z,941.6
2022-09-28T09:16:23.110Z,941.6
2022-09-28T09:17:25.036Z,941.6
2022-09-28T09:18:26.602Z,941.6
2022-09-28T09:19:28.199Z,941.6
2022-09-28T09:20:29.739Z,941.6
2022-09-28T09:21:31.284Z,941.6
2022-09-28T09:22:32.871Z,941.6
2022-09-28T09:23:34.522Z,941.5
2022-09-28T09:24:36.151Z,941.5
2022-09-28T09:25:39.076Z,941.6
2022-09-28T09:26:40.716Z,941.5
2022-09-28T09:27:42.274Z,941.5
2022-09-28T09:28:44.045Z,941.5
2022-09-28T09:29:45.611Z,941.5
2022-09-28T09:30:47.565Z,941.6
2022-09-28T09:31:49.354Z,941.5
2022-09-28T09:32:50.901Z,941.5
2022-09-28T09:33:52.465Z,941.5
2022-09-28T09:34:53.999Z,941.5
2022-09-28T09:35:55.575Z,941.5
2022-09-28T09:36:57.115Z,941.5
2022-09-28T09:37:59.084Z,941.5
2022-09-28T09:39:00.841Z,941.4
2022-09-28T09:40:02.550Z,941.4
2022-09-28T09:41:04.731Z,941.4
2022-09-28T09:42:06.873Z,941.4
2022-09-28T09:43:08.460Z,941.4
2022-09-28T09:44:10.200Z,941.4
2022-09-28T09:45:12.124Z,941.4
2022-09-28T09:46:14.050Z,941.3
2022-09-28T09:47:15.935Z,941.3
2022-09-28T09:48:17.547Z,941.3
2022-09-28T09:50:20.467Z,941.3
2022-09-28T09:51:22.063Z,941.3
2022-09-28T09:52:24.202Z,941.3
2022-09-28T09:53:26.062Z,941.3
2022-09-28T09:54:30.845Z,941.3
2022-09-28T09:55:32.439Z,941.2
2022-09-28T09:56:34.222Z,941.2
2022-09-28T09:57:35.910Z,941.2
2022-09-28T09:58:37.462Z,941.2
2022-09-28T09:59:38.998Z,941.2
2022-09-28T10:00:40.692Z,941.2
2022-09-28T10:01:42.707Z,941.2
2022-09-28T10:02:44.776Z,941.2
2022-09-28T10:03:46.762Z,941.2
2022-09-28T10:04:48.371Z,941.2
2022-09-28T10:05:50.081Z,941.2
2022-09-28T10:06:51.705Z,941.2
2022-09-28T10:07:53.538Z,941.2
2022-09-28T10:08:55.102Z,941.1
2022-09-28T10:09:56.952Z,941.1
2022-09-28T10:11:01.854Z,941.1
2022-09-28T10:12:03.908Z,941.2
2022-09-28T10:13:05.737Z,941.1
2022-09-28T10:14:07.441Z,941.2
2022-09-28T10:15:09.031Z,941.2
2022-09-28T10:16:10.704Z,941.2
2022-09-28T10:17:12.402Z,941.2
2022-09-28T10:18:14.008Z,941.2
2022-09-28T10:19:19.124Z,941.2
2022-09-28T10:20:21.067Z,941.2
2022-09-28T10:21:22.782Z,941.1
2022-09-28T10:22:24.496Z,941.1
2022-09-28T10:23:26.225Z,941.1
2022-09-28T10:24:27.874Z,941.1
2022-09-28T10:25:29.654Z,941.1
2022-09-28T10:26:31.297Z,941.1
2022-09-28T10:27:33.109Z,941.1
2022-09-28T10:28:34.834Z,941.1
2022-09-28T10:29:36.535Z,941.1
2022-09-28T10:30:38.505Z,941.1
2022-09-28T10:31:40.410Z,941.1
2022-09-28T10:32:42.069Z,941.1
2022-09-28T10:33:43.785Z,941
2022-09-28T10:34:51.470Z,941
2022-09-28T10:35:53.302Z,941
2022-09-28T10:36:55.017Z,941
2022-09-28T10:37:56.746Z,941
2022-09-28T10:38:58.517Z,941
2022-09-28T10:40:00.183Z,940.9
2022-09-28T10:41:02.423Z,940.9
2022-09-28T10:42:04.351Z,940.9
2022-09-28T10:43:06.293Z,940.9
2022-09-28T10:44:08.053Z,940.9
2022-09-28T10:45:09.662Z,940.9
2022-09-28T10:46:11.649Z,940.9
2022-09-28T10:47:13.603Z,940.8
2022-09-28T10:48:15.228Z,940.8
2022-09-28T10:49:16.886Z,940.9
2022-09-28T10:50:18.573Z,940.9
2022-09-28T10:51:20.407Z,940.9
2022-09-28T10:52:22.063Z,940.9
2022-09-28T10:53:23.751Z,940.9
2022-09-28T10:54:25.442Z,940.8
2022-09-28T10:55:27.350Z,940.8
2022-09-28T10:56:29.023Z,940.8
2022-09-28T10:57:30.591Z,940.8
2022-09-28T10:58:32.405Z,940.7
2022-09-28T10:59:34.133Z,940.7
2022-09-28T11:00:35.740Z,940.7
2022-09-28T11:01:37.920Z,940.7
2022-09-28T11:02:39.932Z,940.8
2022-09-28T11:03:42.062Z,940.7
2022-09-28T11:04:43.655Z,940.7
2022-09-28T11:05:45.316Z,940.6
2022-09-28T11:06:47.310Z,940.6
2022-09-28T11:07:49.063Z,940.6
2022-09-28T11:08:51.462Z,940.5
2022-09-28T11:09:53.248Z,940.5
2022-09-28T11:10:54.957Z,940.5
2022-09-28T11:11:56.571Z,940.6
2022-09-28T11:12:58.293Z,940.6
2022-09-28T11:14:00.171Z,940.6
2022-09-28T11:15:01.917Z,940.6
2022-09-28T11:16:03.630Z,940.6
2022-09-28T11:17:05.522Z,940.6
2022-09-28T11:18:07.298Z,940.6
2022-09-28T11:19:08.994Z,940.6
2022-09-28T11:20:10.588Z,940.6
2022-09-28T11:21:13.669Z,940.6
2022-09-28T11:22:15.383Z,940.6
2022-09-28T11:23:17.077Z,940.5
2022-09-28T11:24:20.334Z,940.5
2022-09-28T11:25:23.052Z,940.5
2022-09-28T11:26:24.690Z,940.5
2022-09-28T11:27:26.648Z,940.5
2022-09-28T11:28:28.312Z,940.5
2022-09-28T11:29:30.095Z,940.6
2022-09-28T11:30:32.235Z,940.5
2022-09-28T11:31:34.118Z,940.5
2022-09-28T11:32:35.772Z,940.4
2022-09-28T11:33:40.035Z,940.4
2022-09-28T11:35:00.742Z,940.3
2022-09-28T11:36:02.509Z,940.3
2022-09-28T11:37:04.036Z,940.3
2022-09-28T11:38:05.730Z,940.3
2022-09-28T11:39:07.419Z,940.3
2022-09-28T11:40:08.963Z,940.3
2022-09-28T11:41:10.507Z,940.3
2022-09-28T11:42:16.916Z,940.3
2022-09-28T11:43:18.664Z,940.3
2022-09-28T11:44:20.421Z,940.3
2022-09-28T11:45:22.286Z,940.3
2022-09-28T11:46:24.257Z,940.3
2022-09-28T11:47:26.019Z,940.3
2022-09-28T11:48:27.710Z,940.3
2022-09-28T11:49:29.248Z,940.3
2022-09-28T11:50:30.982Z,940.3
2022-09-28T11:51:32.829Z,940.3
2022-09-28T11:52:34.387Z,940.3
2022-09-28T11:53:36.225Z,940.3
2022-09-28T11:54:37.855Z,940.4
2022-09-28T11:55:39.635Z,940.4
2022-09-28T11:56:41.378Z,940.4
2022-09-28T11:57:43.142Z,940.4
2022-09-28T11:58:44.890Z,940.4
2022-09-28T11:59:46.481Z,940.4
2022-09-28T12:00:48.196Z,940.4
2022-09-28T12:01:50.018Z,940.4
2022-09-28T12:02:52.119Z,940.4
2022-09-28T12:03:54.022Z,940.4
2022-09-28T12:04:55.593Z,940.3
2022-09-28T12:05:57.220Z,940.3
2022-09-28T12:06:58.870Z,940.3
2022-09-28T12:08:00.549Z,940.3
2022-09-28T12:09:02.352Z,940.2
2022-09-28T12:10:04.045Z,940.2
2022-09-28T12:11:05.958Z,940.2
2022-09-28T12:12:07.602Z,940.1
2022-09-28T12:13:09.215Z,940.2
2022-09-28T12:14:11.210Z,940.1
2022-09-28T12:15:12.856Z,940.1
2022-09-28T12:17:19.298Z,940.1
2022-09-28T12:18:22.047Z,940.1
2022-09-28T12:19:23.627Z,940.1
2022-09-28T12:20:25.423Z,940.1
2022-09-28T12:21:27.027Z,940.1
2022-09-28T12:22:28.615Z,940.1
2022-09-28T12:23:30.294Z,940.1
2022-09-28T12:24:31.843Z,940.2
2022-09-28T12:25:33.496Z,940.2
2022-09-28T12:26:38.460Z,940.2
2022-09-28T12:27:40.045Z,940.2
2022-09-28T12:28:41.700Z,940.2
2022-09-28T12:29:43.345Z,940.2
2022-09-28T12:30:45.440Z,940.2
2022-09-28T12:31:47.443Z,940.2
2022-09-28T12:32:49.231Z,940.3
2022-09-28T12:33:50.952Z,940.3
2022-09-28T12:34:52.755Z,940.3
2022-09-28T12:35:54.371Z,940.3
2022-09-28T12:36:55.967Z,940.3
2022-09-28T12:37:57.625Z,940.2
2022-09-28T12:39:57.777Z,940.2
2022-09-28T12:41:00.659Z,940.2
2022-09-28T12:42:02.428Z,940.2
2022-09-28T12:43:04.123Z,940.1
2022-09-28T12:44:05.710Z,940.1
2022-09-28T12:45:07.417Z,940.2
2022-09-28T12:46:13.850Z,940.2
2022-09-28T12:47:15.907Z,940.2
2022-09-28T12:48:17.597Z,940.2
2022-09-28T12:51:58.839Z,940.2
2022-09-28T12:53:03.599Z,940.3
2022-09-28T12:54:05.229Z,940.2
2022-09-28T12:55:07.248Z,940.2
2022-09-28T12:56:09.026Z,940.2
2022-09-28T12:57:11.191Z,940.2
2022-09-28T12:58:12.723Z,940.2
2022-09-28T12:59:14.487Z,940.2
2022-09-28T13:00:16.314Z,940.2
2022-09-28T13:01:18.208Z,940.2
2022-09-28T13:02:20.360Z,940.2
2022-09-28T13:03:22.243Z,940.2
2022-09-28T13:04:24.055Z,940.2
2022-09-28T13:05:25.757Z,940.2
2022-09-28T13:06:27.423Z,940.2
2022-09-28T13:07:29.064Z,940.2
2022-09-28T13:08:30.712Z,940.2
2022-09-28T13:09:32.357Z,940.2
2022-09-28T13:10:33.895Z,940.2
2022-09-28T13:11:35.554Z,940.2
2022-09-28T13:12:37.203Z,940.2
2022-09-28T13:13:38.921Z,940.2
2022-09-28T13:14:40.488Z,940.2
2022-09-28T13:15:42.439Z,940.2
2022-09-28T13:16:44.367Z,940.2
2022-09-28T13:17:46.113Z,940.2
2022-09-28T13:18:47.738Z,940.2
2022-09-28T13:19:49.479Z,940.2
2022-09-28T13:20:51.151Z,940.3
2022-09-28T13:21:52.699Z,940.2
2022-09-28T13:22:54.359Z,940.3
2022-09-28T13:24:33.441Z,940.3
2022-09-28T13:25:35.341Z,940.3
2022-09-28T13:26:36.988Z,940.3
2022-09-28T13:27:38.668Z,940.2